sensor_id;sensor_type;location;lat;lon;timestamp;pressure;altitude;pressure_sealevel;temperature;humidity
64158;BME280;50449;51.528;5.076;2022-12-07T00:01:27;101746.50;;;7.20;66.76
64158;BME280;50449;51.528;5.076;2022-12-07T00:03:54;101746.50;;;7.20;66.98
64158;BME280;50449;51.528;5.076;2022-12-07T00:06:22;101747.53;;;7.19;66.91
64158;BME280;50449;51.528;5.076;2022-12-07T00:08:48;101750.41;;;7.17;67.09
64158;BME280;50449;51.528;5.076;2022-12-07T00:11:18;101748.53;;;7.18;66.93
64158;BME280;50449;51.528;5.076;2022-12-07T00:13:45;101746.91;;;7.17;66.92
64158;BME280;50449;51.528;5.076;2022-12-07T00:16:15;101746.91;;;7.17;66.77
64158;BME280;50449;51.528;5.076;2022-12-07T00:18:42;101745.22;;;7.15;66.76
64158;BME280;50449;51.528;5.076;2022-12-07T00:21:14;101739.84;;;7.15;67.10
64158;BME280;50449;51.528;5.076;2022-12-07T00:23:40;101740.88;;;7.14;66.94
64158;BME280;50449;51.528;5.076;2022-12-07T00:26:11;101752.47;;;7.15;67.12
64158;BME280;50449;51.528;5.076;2022-12-07T00:28:37;101742.75;;;7.14;66.74
64158;BME280;50449;51.528;5.076;2022-12-07T00:31:06;101742.75;;;7.14;66.75
64158;BME280;50449;51.528;5.076;2022-12-07T00:33:33;101733.00;;;7.13;66.89
64158;BME280;50449;51.528;5.076;2022-12-07T00:35:59;101738.59;;;7.11;66.96
64158;BME280;50449;51.528;5.076;2022-12-07T00:38:27;101737.78;;;7.11;66.92
64158;BME280;50449;51.528;5.076;2022-12-07T00:40:55;101736.91;;;7.10;66.98
64158;BME280;50449;51.528;5.076;2022-12-07T00:43:20;101741.28;;;7.11;66.97
64158;BME280;50449;51.528;5.076;2022-12-07T00:45:46;101730.72;;;7.10;66.74
64158;BME280;50449;51.528;5.076;2022-12-07T00:48:11;101729.91;;;7.09;67.04
64158;BME280;50449;51.528;5.076;2022-12-07T00:50:37;101733.63;;;7.08;66.91
64158;BME280;50449;51.528;5.076;2022-12-07T00:53:02;101729.25;;;7.07;66.76
64158;BME280;50449;51.528;5.076;2022-12-07T00:55:28;101722.00;;;7.08;66.70
64158;BME280;50449;51.528;5.076;2022-12-07T00:57:53;101731.94;;;7.07;66.87
64158;BME280;50449;51.528;5.076;2022-12-07T01:00:18;101725.75;;;7.07;66.85
64158;BME280;50449;51.528;5.076;2022-12-07T01:02:44;101721.41;;;7.06;66.95
64158;BME280;50449;51.528;5.076;2022-12-07T01:05:09;101729.47;;;7.06;67.05
64158;BME280;50449;51.528;5.076;2022-12-07T01:07:35;101726.78;;;7.06;66.74
64158;BME280;50449;51.528;5.076;2022-12-07T01:10:00;101729.66;;;7.04;66.90
64158;BME280;50449;51.528;5.076;2022-12-07T01:12:26;101716.22;;;7.04;66.99
64158;BME280;50449;51.528;5.076;2022-12-07T01:14:51;101726.13;;;7.04;67.08
64158;BME280;50449;51.528;5.076;2022-12-07T01:17:16;101719.94;;;7.03;66.93
64158;BME280;50449;51.528;5.076;2022-12-07T01:19:42;101713.72;;;7.03;66.96
64158;BME280;50449;51.528;5.076;2022-12-07T01:22:07;101719.09;;;7.03;66.84
64158;BME280;50449;51.528;5.076;2022-12-07T01:24:32;101725.50;;;7.02;66.87
64158;BME280;50449;51.528;5.076;2022-12-07T01:26:58;101722.81;;;7.02;66.86
64158;BME280;50449;51.528;5.076;2022-12-07T01:29:23;101726.53;;;7.01;66.93
64158;BME280;50449;51.528;5.076;2022-12-07T01:31:49;101738.09;;;7.01;66.77
64158;BME280;50449;51.528;5.076;2022-12-07T01:34:17;101740.97;;;7.00;66.76
64158;BME280;50449;51.528;5.076;2022-12-07T01:36:42;101728.59;;;6.99;67.03
64158;BME280;50449;51.528;5.076;2022-12-07T01:39:08;101726.72;;;6.99;66.88
64158;BME280;50449;51.528;5.076;2022-12-07T01:41:37;101719.69;;;6.98;66.82
64158;BME280;50449;51.528;5.076;2022-12-07T01:44:17;101713.47;;;6.98;66.94
64158;BME280;50449;51.528;5.076;2022-12-07T01:46:45;101719.69;;;6.98;66.74
64158;BME280;50449;51.528;5.076;2022-12-07T01:49:28;101717.19;;;6.97;66.81
64158;BME280;50449;51.528;5.076;2022-12-07T01:52:01;101721.75;;;6.96;67.13
64158;BME280;50449;51.528;5.076;2022-12-07T01:54:28;101724.44;;;6.96;66.82
64158;BME280;50449;51.528;5.076;2022-12-07T01:56:54;101718.22;;;6.96;67.00
64158;BME280;50449;51.528;5.076;2022-12-07T01:59:23;101720.06;;;6.95;66.75
64158;BME280;50449;51.528;5.076;2022-12-07T02:01:51;101716.56;;;6.94;66.84
64158;BME280;50449;51.528;5.076;2022-12-07T02:04:17;101717.38;;;6.95;66.93
64158;BME280;50449;51.528;5.076;2022-12-07T02:06:44;101714.69;;;6.95;67.06
64158;BME280;50449;51.528;5.076;2022-12-07T02:09:10;101714.91;;;6.93;66.72
64158;BME280;50449;51.528;5.076;2022-12-07T02:11:35;101718.41;;;6.94;66.67
64158;BME280;50449;51.528;5.076;2022-12-07T02:14:01;101708.72;;;6.93;66.99
64158;BME280;50449;51.528;5.076;2022-12-07T02:25:01;101725.19;;;6.90;66.73
64158;BME280;50449;51.528;5.076;2022-12-07T02:27:37;101714.44;;;6.90;66.74
64158;BME280;50449;51.528;5.076;2022-12-07T02:30:14;101714.44;;;6.90;66.78
64158;BME280;50449;51.528;5.076;2022-12-07T02:35:22;101714.66;;;6.88;66.74
64158;BME280;50449;51.528;5.076;2022-12-07T02:38:03;101727.25;;;6.88;67.06
64158;BME280;50449;51.528;5.076;2022-12-07T02:40:43;101730.78;;;6.88;66.74
64158;BME280;50449;51.528;5.076;2022-12-07T02:43:19;101729.09;;;6.87;66.93
64158;BME280;50449;51.528;5.076;2022-12-07T02:45:47;101726.41;;;6.87;66.73
64158;BME280;50449;51.528;5.076;2022-12-07T02:48:17;101718.56;;;6.86;67.01
64158;BME280;50449;51.528;5.076;2022-12-07T02:50:51;101713.19;;;6.86;66.98
64158;BME280;50449;51.528;5.076;2022-12-07T02:53:30;101717.72;;;6.85;66.92
64158;BME280;50449;51.528;5.076;2022-12-07T02:55:56;101700.78;;;6.85;66.86
64158;BME280;50449;51.528;5.076;2022-12-07T03:03:58;101709.03;;;6.83;66.72
64158;BME280;50449;51.528;5.076;2022-12-07T03:06:33;101709.88;;;6.84;67.03
64158;BME280;50449;51.528;5.076;2022-12-07T03:09:14;101711.72;;;6.83;66.90
64158;BME280;50449;51.528;5.076;2022-12-07T03:11:45;101717.28;;;6.82;67.02
64158;BME280;50449;51.528;5.076;2022-12-07T03:14:23;101719.13;;;6.81;67.00
64158;BME280;50449;51.528;5.076;2022-12-07T03:16:58;101723.47;;;6.82;66.72
64158;BME280;50449;51.528;5.076;2022-12-07T03:19:26;101711.09;;;6.81;66.93
64158;BME280;50449;51.528;5.076;2022-12-07T03:21:59;101709.22;;;6.82;66.71
64158;BME280;50449;51.528;5.076;2022-12-07T03:24:27;101714.59;;;6.82;67.16
64158;BME280;50449;51.528;5.076;2022-12-07T03:27:01;101708.41;;;6.81;67.11
64158;BME280;50449;51.528;5.076;2022-12-07T03:29:34;101704.88;;;6.81;66.73
64158;BME280;50449;51.528;5.076;2022-12-07T03:32:05;101708.41;;;6.81;67.01
64158;BME280;50449;51.528;5.076;2022-12-07T03:34:46;101708.41;;;6.81;67.02
64158;BME280;50449;51.528;5.076;2022-12-07T03:37:20;101700.53;;;6.80;67.07
64158;BME280;50449;51.528;5.076;2022-12-07T03:40:12;101695.16;;;6.80;67.12
64158;BME280;50449;51.528;5.076;2022-12-07T03:42:39;101708.59;;;6.80;67.01
64158;BME280;50449;51.528;5.076;2022-12-07T03:45:05;101703.22;;;6.80;66.75
64158;BME280;50449;51.528;5.076;2022-12-07T03:47:36;101698.06;;;6.78;66.67
64158;BME280;50449;51.528;5.076;2022-12-07T03:50:21;101697.00;;;6.79;66.97
64158;BME280;50449;51.528;5.076;2022-12-07T03:52:58;101705.06;;;6.79;66.71
64158;BME280;50449;51.528;5.076;2022-12-07T03:55:37;101709.63;;;6.79;66.77
64158;BME280;50449;51.528;5.076;2022-12-07T03:58:11;101706.94;;;6.79;67.11
64158;BME280;50449;51.528;5.076;2022-12-07T04:00:37;101706.09;;;6.78;66.72
64158;BME280;50449;51.528;5.076;2022-12-07T04:03:02;101709.78;;;6.77;66.88
64158;BME280;50449;51.528;5.076;2022-12-07T04:05:28;101700.91;;;6.77;66.89
64158;BME280;50449;51.528;5.076;2022-12-07T04:07:54;101702.56;;;6.78;66.85
64158;BME280;50449;51.528;5.076;2022-12-07T04:10:19;101698.22;;;6.77;66.90
64158;BME280;50449;51.528;5.076;2022-12-07T04:12:45;101704.44;;;6.77;67.17
64158;BME280;50449;51.528;5.076;2022-12-07T04:15:10;101708.97;;;6.77;66.86
64158;BME280;50449;51.528;5.076;2022-12-07T04:17:36;101708.97;;;6.77;66.77
64158;BME280;50449;51.528;5.076;2022-12-07T04:20:03;101716.19;;;6.76;66.88
64158;BME280;50449;51.528;5.076;2022-12-07T04:22:29;101701.09;;;6.75;66.71
64158;BME280;50449;51.528;5.076;2022-12-07T04:24:55;101704.63;;;6.76;67.13
64158;BME280;50449;51.528;5.076;2022-12-07T04:27:20;101713.69;;;6.75;66.94
64158;BME280;50449;51.528;5.076;2022-12-07T04:29:45;101710.19;;;6.74;66.99
64158;BME280;50449;51.528;5.076;2022-12-07T04:32:11;101696.75;;;6.74;66.91
64158;BME280;50449;51.528;5.076;2022-12-07T04:34:36;101693.25;;;6.74;66.96
64158;BME280;50449;51.528;5.076;2022-12-07T04:37:02;101687.06;;;6.73;66.95
64158;BME280;50449;51.528;5.076;2022-12-07T04:39:31;101691.56;;;6.72;67.13
64158;BME280;50449;51.528;5.076;2022-12-07T04:41:57;101687.06;;;6.73;66.67
64158;BME280;50449;51.528;5.076;2022-12-07T04:44:24;101691.56;;;6.72;66.98
64158;BME280;50449;51.528;5.076;2022-12-07T04:46:51;101699.63;;;6.72;66.85
64158;BME280;50449;51.528;5.076;2022-12-07T04:49:17;101701.50;;;6.72;67.01
64158;BME280;50449;51.528;5.076;2022-12-07T04:51:43;101696.94;;;6.72;66.92
64158;BME280;50449;51.528;5.076;2022-12-07T04:54:09;101690.75;;;6.72;67.02
64158;BME280;50449;51.528;5.076;2022-12-07T04:56:34;101686.41;;;6.71;66.93
64158;BME280;50449;51.528;5.076;2022-12-07T04:59:00;101681.06;;;6.71;66.67
64158;BME280;50449;51.528;5.076;2022-12-07T05:01:26;101673.00;;;6.71;67.00
64158;BME280;50449;51.528;5.076;2022-12-07T05:03:51;101677.53;;;6.70;67.10
64158;BME280;50449;51.528;5.076;2022-12-07T05:06:17;101671.13;;;6.71;66.99
64158;BME280;50449;51.528;5.076;2022-12-07T05:08:42;101684.56;;;6.71;66.85
64158;BME280;50449;51.528;5.076;2022-12-07T05:11:09;101676.50;;;6.71;67.08
64158;BME280;50449;51.528;5.076;2022-12-07T05:13:35;101678.38;;;6.71;67.08
64158;BME280;50449;51.528;5.076;2022-12-07T05:16:01;101670.31;;;6.71;66.87
64158;BME280;50449;51.528;5.076;2022-12-07T05:18:26;101672.16;;;6.70;67.00
64158;BME280;50449;51.528;5.076;2022-12-07T05:20:52;101668.63;;;6.70;66.81
64158;BME280;50449;51.528;5.076;2022-12-07T05:23:18;101672.16;;;6.70;66.71
64158;BME280;50449;51.528;5.076;2022-12-07T05:25:44;101666.97;;;6.69;67.03
64158;BME280;50449;51.528;5.076;2022-12-07T05:28:10;101673.00;;;6.71;67.14
64158;BME280;50449;51.528;5.076;2022-12-07T05:30:35;101670.50;;;6.69;66.86
64158;BME280;50449;51.528;5.076;2022-12-07T05:33:00;101675.03;;;6.69;67.12
64158;BME280;50449;51.528;5.076;2022-12-07T05:35:26;101669.66;;;6.69;66.83
64158;BME280;50449;51.528;5.076;2022-12-07T05:37:51;101680.41;;;6.69;67.05
64158;BME280;50449;51.528;5.076;2022-12-07T05:40:17;101673.38;;;6.68;66.96
64158;BME280;50449;51.528;5.076;2022-12-07T05:42:44;101668.03;;;6.68;66.85
64158;BME280;50449;51.528;5.076;2022-12-07T05:45:10;101667.16;;;6.67;67.12
64158;BME280;50449;51.528;5.076;2022-12-07T05:47:36;101673.38;;;6.68;66.84
64158;BME280;50449;51.528;5.076;2022-12-07T05:50:03;101673.38;;;6.68;66.67
64158;BME280;50449;51.528;5.076;2022-12-07T05:52:29;101671.72;;;6.67;66.88
64158;BME280;50449;51.528;5.076;2022-12-07T05:54:54;101663.66;;;6.67;66.93
64158;BME280;50449;51.528;5.076;2022-12-07T05:57:19;101667.38;;;6.66;67.11
64158;BME280;50449;51.528;5.076;2022-12-07T05:59:45;101658.50;;;6.65;66.93
64158;BME280;50449;51.528;5.076;2022-12-07T06:02:13;101655.81;;;6.65;66.75
64158;BME280;50449;51.528;5.076;2022-12-07T06:04:41;101663.88;;;6.65;66.68
64158;BME280;50449;51.528;5.076;2022-12-07T06:07:08;101661.19;;;6.65;67.07
64158;BME280;50449;51.528;5.076;2022-12-07T06:09:34;101667.56;;;6.64;66.82
64158;BME280;50449;51.528;5.076;2022-12-07T06:12:00;101664.88;;;6.64;66.76
64158;BME280;50449;51.528;5.076;2022-12-07T06:14:44;101668.59;;;6.63;66.69
64158;BME280;50449;51.528;5.076;2022-12-07T06:17:10;101677.66;;;6.62;66.99
64158;BME280;50449;51.528;5.076;2022-12-07T06:19:36;101679.50;;;6.62;66.66
64158;BME280;50449;51.528;5.076;2022-12-07T06:22:02;101677.66;;;6.62;66.80
64158;BME280;50449;51.528;5.076;2022-12-07T06:24:30;101677.88;;;6.61;66.78
64158;BME280;50449;51.528;5.076;2022-12-07T06:26:55;101673.31;;;6.61;66.75
64158;BME280;50449;51.528;5.076;2022-12-07T06:29:20;101671.69;;;6.60;66.93
64158;BME280;50449;51.528;5.076;2022-12-07T06:31:47;101672.50;;;6.61;67.05
64158;BME280;50449;51.528;5.076;2022-12-07T06:34:15;101668.34;;;6.58;67.07
64158;BME280;50449;51.528;5.076;2022-12-07T06:36:41;101676.41;;;6.58;66.85
64158;BME280;50449;51.528;5.076;2022-12-07T06:39:07;101673.72;;;6.58;66.65
64158;BME280;50449;51.528;5.076;2022-12-07T06:41:37;101675.56;;;6.58;66.70
64158;BME280;50449;51.528;5.076;2022-12-07T06:44:04;101676.59;;;6.57;66.72
64158;BME280;50449;51.528;5.076;2022-12-07T06:46:29;101678.44;;;6.56;66.93
64158;BME280;50449;51.528;5.076;2022-12-07T06:48:55;101673.06;;;6.56;66.92
64158;BME280;50449;51.528;5.076;2022-12-07T06:51:20;101676.78;;;6.55;66.84
64158;BME280;50449;51.528;5.076;2022-12-07T06:53:45;101667.88;;;6.55;67.00
64158;BME280;50449;51.528;5.076;2022-12-07T06:56:11;101676.97;;;6.54;66.76
64158;BME280;50449;51.528;5.076;2022-12-07T06:58:36;101670.78;;;6.53;66.98
64158;BME280;50449;51.528;5.076;2022-12-07T07:01:02;101667.25;;;6.53;66.62
64158;BME280;50449;51.528;5.076;2022-12-07T07:03:28;101663.72;;;6.52;66.82
64158;BME280;50449;51.528;5.076;2022-12-07T07:05:53;101664.78;;;6.51;66.84
64158;BME280;50449;51.528;5.076;2022-12-07T07:08:19;101673.81;;;6.50;66.61
64158;BME280;50449;51.528;5.076;2022-12-07T07:10:44;101669.50;;;6.49;66.69
64158;BME280;50449;51.528;5.076;2022-12-07T07:13:10;101685.59;;;6.49;66.60
64158;BME280;50449;51.528;5.076;2022-12-07T07:15:37;101692.00;;;6.48;66.87
64158;BME280;50449;51.528;5.076;2022-12-07T07:18:03;101692.00;;;6.48;66.52
64158;BME280;50449;51.528;5.076;2022-12-07T07:20:28;101691.16;;;6.47;66.72
64158;BME280;50449;51.528;5.076;2022-12-07T07:22:54;101705.59;;;6.46;66.77
64158;BME280;50449;51.528;5.076;2022-12-07T07:25:20;101694.03;;;6.46;66.78
64158;BME280;50449;51.528;5.076;2022-12-07T07:27:46;101703.94;;;6.45;66.64
64158;BME280;50449;51.528;5.076;2022-12-07T07:30:11;101700.41;;;6.45;66.60
64158;BME280;50449;51.528;5.076;2022-12-07T07:32:37;101688.84;;;6.44;66.92
64158;BME280;50449;51.528;5.076;2022-12-07T07:35:03;101689.88;;;6.43;66.61
64158;BME280;50449;51.528;5.076;2022-12-07T07:37:28;101681.00;;;6.43;66.87
64158;BME280;50449;51.528;5.076;2022-12-07T07:39:53;101682.84;;;6.42;66.64
64158;BME280;50449;51.528;5.076;2022-12-07T07:42:19;101687.38;;;6.42;66.56
64158;BME280;50449;51.528;5.076;2022-12-07T07:44:44;101680.16;;;6.42;66.55
64158;BME280;50449;51.528;5.076;2022-12-07T07:47:10;101687.59;;;6.40;66.61
64158;BME280;50449;51.528;5.076;2022-12-07T07:49:35;101676.88;;;6.40;66.53
64158;BME280;50449;51.528;5.076;2022-12-07T07:52:01;101696.66;;;6.39;66.39
64158;BME280;50449;51.528;5.076;2022-12-07T07:54:26;101697.69;;;6.38;66.65
64158;BME280;50449;51.528;5.076;2022-12-07T07:56:52;101695.00;;;6.38;66.78
64158;BME280;50449;51.528;5.076;2022-12-07T07:59:18;101694.19;;;6.38;66.62
64158;BME280;50449;51.528;5.076;2022-12-07T08:01:43;101697.03;;;6.36;66.54
64158;BME280;50449;51.528;5.076;2022-12-07T08:04:09;101694.34;;;6.36;66.48
64158;BME280;50449;51.528;5.076;2022-12-07T08:06:34;101695.41;;;6.35;66.84
64158;BME280;50449;51.528;5.076;2022-12-07T08:09:00;101699.06;;;6.34;66.60
64158;BME280;50449;51.528;5.076;2022-12-07T08:11:25;101700.94;;;6.34;66.31
64158;BME280;50449;51.528;5.076;2022-12-07T08:13:50;101701.97;;;6.33;66.62
64158;BME280;50449;51.528;5.076;2022-12-07T08:16:16;101695.75;;;6.32;66.71
64158;BME280;50449;51.528;5.076;2022-12-07T08:18:42;101702.16;;;6.31;66.49
64158;BME280;50449;51.528;5.076;2022-12-07T08:21:11;101702.16;;;6.31;66.66
64158;BME280;50449;51.528;5.076;2022-12-07T08:23:37;101699.47;;;6.31;66.57
64158;BME280;50449;51.528;5.076;2022-12-07T08:26:08;101699.47;;;6.31;66.51
64158;BME280;50449;51.528;5.076;2022-12-07T08:28:34;101704.00;;;6.31;66.67
64158;BME280;50449;51.528;5.076;2022-12-07T08:31:00;101710.38;;;6.29;66.50
64158;BME280;50449;51.528;5.076;2022-12-07T08:33:26;101718.44;;;6.29;66.84
64158;BME280;50449;51.528;5.076;2022-12-07T08:35:52;101720.28;;;6.29;66.53
64158;BME280;50449;51.528;5.076;2022-12-07T08:38:17;101717.59;;;6.29;66.47
64158;BME280;50449;51.528;5.076;2022-12-07T08:40:43;101720.28;;;6.29;66.47
64158;BME280;50449;51.528;5.076;2022-12-07T08:43:08;101716.78;;;6.28;66.74
64158;BME280;50449;51.528;5.076;2022-12-07T08:45:33;101725.88;;;6.27;66.48
64158;BME280;50449;51.528;5.076;2022-12-07T08:48:08;101718.63;;;6.28;66.51
64158;BME280;50449;51.528;5.076;2022-12-07T08:50:36;101709.75;;;6.27;66.38
64158;BME280;50449;51.528;5.076;2022-12-07T08:53:03;101707.25;;;6.26;66.48
64158;BME280;50449;51.528;5.076;2022-12-07T08:55:30;101707.25;;;6.26;66.45
64158;BME280;50449;51.528;5.076;2022-12-07T08:57:58;101702.94;;;6.25;66.94
64158;BME280;50449;51.528;5.076;2022-12-07T09:00:24;101699.38;;;6.24;66.63
64158;BME280;50449;51.528;5.076;2022-12-07T09:02:50;101701.06;;;6.25;66.77
64158;BME280;50449;51.528;5.076;2022-12-07T09:05:16;101696.91;;;6.23;66.62
64158;BME280;50449;51.528;5.076;2022-12-07T09:07:43;101697.75;;;6.23;66.56
64158;BME280;50449;51.528;5.076;2022-12-07T09:10:10;101698.56;;;6.24;66.31
64158;BME280;50449;51.528;5.076;2022-12-07T09:12:36;101695.06;;;6.23;66.40
64158;BME280;50449;51.528;5.076;2022-12-07T09:15:01;101702.28;;;6.23;66.54
64158;BME280;50449;51.528;5.076;2022-12-07T09:17:27;101701.25;;;6.24;66.46
64158;BME280;50449;51.528;5.076;2022-12-07T09:19:53;101695.06;;;6.23;66.62
64158;BME280;50449;51.528;5.076;2022-12-07T09:22:18;101696.91;;;6.23;66.57
64158;BME280;50449;51.528;5.076;2022-12-07T09:24:43;101696.09;;;6.22;66.49
64158;BME280;50449;51.528;5.076;2022-12-07T09:27:13;101696.09;;;6.22;66.40
64158;BME280;50449;51.528;5.076;2022-12-07T09:29:38;101700.59;;;6.22;66.79
64158;BME280;50449;51.528;5.076;2022-12-07T09:32:04;101700.59;;;6.22;66.64
64158;BME280;50449;51.528;5.076;2022-12-07T09:34:32;101694.59;;;6.20;66.66
64158;BME280;50449;51.528;5.076;2022-12-07T09:37:00;101703.50;;;6.20;66.61
64158;BME280;50449;51.528;5.076;2022-12-07T09:39:26;101702.63;;;6.20;66.41
64158;BME280;50449;51.528;5.076;2022-12-07T09:41:52;101699.94;;;6.20;66.57
64158;BME280;50449;51.528;5.076;2022-12-07T09:44:24;101700.16;;;6.18;66.68
64158;BME280;50449;51.528;5.076;2022-12-07T09:46:51;101708.84;;;6.20;66.75
64158;BME280;50449;51.528;5.076;2022-12-07T09:49:20;101692.94;;;6.19;66.60
64158;BME280;50449;51.528;5.076;2022-12-07T09:51:46;101694.59;;;6.20;66.49
64158;BME280;50449;51.528;5.076;2022-12-07T09:54:14;101700.16;;;6.18;66.47
64158;BME280;50449;51.528;5.076;2022-12-07T09:56:41;101702.84;;;6.18;66.38
64158;BME280;50449;51.528;5.076;2022-12-07T09:59:13;101702.84;;;6.18;66.71
64158;BME280;50449;51.528;5.076;2022-12-07T10:01:41;101695.81;;;6.17;66.54
64158;BME280;50449;51.528;5.076;2022-12-07T10:04:13;101699.34;;;6.18;66.74
64158;BME280;50449;51.528;5.076;2022-12-07T10:06:41;101695.81;;;6.17;66.27
64158;BME280;50449;51.528;5.076;2022-12-07T10:09:14;101688.78;;;6.16;66.64
64158;BME280;50449;51.528;5.076;2022-12-07T10:12:05;101687.75;;;6.17;66.87
64158;BME280;50449;51.528;5.076;2022-12-07T10:14:33;101680.75;;;6.16;66.73
64158;BME280;50449;51.528;5.076;2022-12-07T10:17:00;101686.09;;;6.16;66.65
64158;BME280;50449;51.528;5.076;2022-12-07T10:19:30;101678.06;;;6.16;66.56
64158;BME280;50449;51.528;5.076;2022-12-07T10:22:15;101678.22;;;6.15;66.49
64158;BME280;50449;51.528;5.076;2022-12-07T10:24:43;101671.03;;;6.15;66.39
64158;BME280;50449;51.528;5.076;2022-12-07T10:27:21;101679.91;;;6.16;66.55
64158;BME280;50449;51.528;5.076;2022-12-07T10:29:49;101679.91;;;6.16;66.63
64158;BME280;50449;51.528;5.076;2022-12-07T10:34:41;101671.03;;;6.15;66.63
64158;BME280;50449;51.528;5.076;2022-12-07T10:39:52;101664.81;;;6.15;66.41
64158;BME280;50449;51.528;5.076;2022-12-07T10:42:19;101657.63;;;6.15;66.52
64158;BME280;50449;51.528;5.076;2022-12-07T10:44:45;101654.94;;;6.15;66.43
64158;BME280;50449;51.528;5.076;2022-12-07T10:56:00;101652.25;;;6.15;66.85
64158;BME280;50449;51.528;5.076;2022-12-07T11:06:44;101636.16;;;6.15;66.60
64158;BME280;50449;51.528;5.076;2022-12-07T11:12:11;101627.91;;;6.17;66.98
64158;BME280;50449;51.528;5.076;2022-12-07T11:15:09;101635.97;;;6.17;67.14
64158;BME280;50449;51.528;5.076;2022-12-07T11:28:20;101618.84;;;6.18;66.91
64158;BME280;50449;51.528;5.076;2022-12-07T11:31:18;101619.69;;;6.18;67.07
64158;BME280;50449;51.528;5.076;2022-12-07T11:33:46;101610.41;;;6.21;67.00
64158;BME280;50449;51.528;5.076;2022-12-07T11:36:35;101610.25;;;6.22;67.01
64158;BME280;50449;51.528;5.076;2022-12-07T11:39:09;101608.38;;;6.23;67.15
64158;BME280;50449;51.528;5.076;2022-12-07T11:41:37;101613.53;;;6.24;67.37
64158;BME280;50449;51.528;5.076;2022-12-07T11:47:18;101599.94;;;6.26;67.22
64158;BME280;50449;51.528;5.076;2022-12-07T11:52:30;101596.88;;;6.29;67.66
64158;BME280;50449;51.528;5.076;2022-12-07T11:54:58;101591.50;;;6.29;67.49
64158;BME280;50449;51.528;5.076;2022-12-07T11:57:32;101589.44;;;6.31;67.40
64158;BME280;50449;51.528;5.076;2022-12-07T12:00:06;101591.09;;;6.32;67.64
64158;BME280;50449;51.528;5.076;2022-12-07T12:02:43;101590.09;;;6.33;67.56
64158;BME280;50449;51.528;5.076;2022-12-07T12:05:37;101584.53;;;6.35;67.67
64158;BME280;50449;51.528;5.076;2022-12-07T12:08:14;101588.88;;;6.36;67.79
64158;BME280;50449;51.528;5.076;2022-12-07T12:10:54;101582.47;;;6.37;67.71
64158;BME280;50449;51.528;5.076;2022-12-07T12:13:30;101578.97;;;6.36;67.91
64158;BME280;50449;51.528;5.076;2022-12-07T12:16:58;101582.28;;;6.38;67.90
64158;BME280;50449;51.528;5.076;2022-12-07T12:19:10;101569.88;;;6.37;67.76
64158;BME280;50449;51.528;5.076;2022-12-07T12:21:41;101576.94;;;6.38;67.72
64158;BME280;50449;51.528;5.076;2022-12-07T12:24:16;101562.47;;;6.39;68.17
64158;BME280;50449;51.528;5.076;2022-12-07T12:27:01;101566.84;;;6.40;67.81
64158;BME280;50449;51.528;5.076;2022-12-07T12:29:31;101560.44;;;6.41;67.81
64158;BME280;50449;51.528;5.076;2022-12-07T12:42:56;101553.44;;;6.47;67.95
64158;BME280;50449;51.528;5.076;2022-12-07T12:47:58;101548.91;;;6.47;68.19
64158;BME280;50449;51.528;5.076;2022-12-07T12:50:35;101546.84;;;6.49;68.24
64158;BME280;50449;51.528;5.076;2022-12-07T12:53:25;101542.31;;;6.50;68.30
64158;BME280;50449;51.528;5.076;2022-12-07T12:56:39;101536.13;;;6.49;68.25
64158;BME280;50449;51.528;5.076;2022-12-07T12:59:24;101535.94;;;6.51;68.16
64158;BME280;50449;51.528;5.076;2022-12-07T13:01:53;101538.63;;;6.51;68.10
64158;BME280;50449;51.528;5.076;2022-12-07T13:04:37;101529.53;;;6.52;68.35
64158;BME280;50449;51.528;5.076;2022-12-07T13:07:03;101534.72;;;6.54;68.04
64158;BME280;50449;51.528;5.076;2022-12-07T13:09:31;101528.31;;;6.55;68.04
64158;BME280;50449;51.528;5.076;2022-12-07T13:12:19;101524.63;;;6.56;68.45
64158;BME280;50449;51.528;5.076;2022-12-07T13:14:52;101520.88;;;6.57;68.23
64158;BME280;50449;51.528;5.076;2022-12-07T13:19:55;101512.66;;;6.58;68.35
64158;BME280;50449;51.528;5.076;2022-12-07T13:25:26;101511.44;;;6.61;68.38
64158;BME280;50449;51.528;5.076;2022-12-07T13:28:00;101514.94;;;6.61;68.21
64158;BME280;50449;51.528;5.076;2022-12-07T13:30:27;101510.38;;;6.62;68.16
64158;BME280;50449;51.528;5.076;2022-12-07T13:32:54;101506.06;;;6.61;67.97
64158;BME280;50449;51.528;5.076;2022-12-07T13:37:59;101502.16;;;6.63;68.23
64158;BME280;50449;51.528;5.076;2022-12-07T13:40:26;101493.88;;;6.65;68.26
64158;BME280;50449;51.528;5.076;2022-12-07T13:43:03;101493.69;;;6.66;68.39
64158;BME280;50449;51.528;5.076;2022-12-07T13:45:33;101497.19;;;6.67;68.33
64158;BME280;50449;51.528;5.076;2022-12-07T13:51:18;101494.34;;;6.68;68.19
64158;BME280;50449;51.528;5.076;2022-12-07T13:54:30;101507.75;;;6.68;68.16
64158;BME280;50449;51.528;5.076;2022-12-07T13:56:37;101498.66;;;6.69;68.20
64158;BME280;50449;51.528;5.076;2022-12-07T13:59:07;101505.88;;;6.69;68.31
64158;BME280;50449;51.528;5.076;2022-12-07T14:01:37;101492.28;;;6.70;67.81
64158;BME280;50449;51.528;5.076;2022-12-07T14:06:50;101476.78;;;6.72;67.90
64158;BME280;50449;51.528;5.076;2022-12-07T14:09:20;101477.63;;;6.73;67.79
64158;BME280;50449;51.528;5.076;2022-12-07T14:11:48;101472.03;;;6.75;68.01
64158;BME280;50449;51.528;5.076;2022-12-07T14:14:21;101465.66;;;6.76;67.96
64158;BME280;50449;51.528;5.076;2022-12-07T14:17:11;101457.38;;;6.77;68.23
64158;BME280;50449;51.528;5.076;2022-12-07T14:19:58;101467.13;;;6.78;67.87
64158;BME280;50449;51.528;5.076;2022-12-07T14:22:33;101467.94;;;6.79;67.70
64158;BME280;50449;51.528;5.076;2022-12-07T14:25:19;101456.97;;;6.80;68.00
64158;BME280;50449;51.528;5.076;2022-12-07T14:30:20;101452.25;;;6.82;67.82
64158;BME280;50449;51.528;5.076;2022-12-07T14:32:50;101455.75;;;6.83;68.00
64158;BME280;50449;51.528;5.076;2022-12-07T14:35:17;101451.25;;;6.83;67.95
64158;BME280;50449;51.528;5.076;2022-12-07T14:37:45;101450.19;;;6.84;67.82
64158;BME280;50449;51.528;5.076;2022-12-07T14:40:17;101442.97;;;6.85;67.69